JDI69 EKBI-ELLX
Flight info
| Callsign | JDI69 |
|---|---|
| Flight time | 1h 1m |
| Altitude | 32000 |
| Route | MIKRO DCT MEVEL DCT PONIG |
| Aircraft | MD11/H-SDE1E2E3FGHIJ2J3J4J5M1RWXY/LB1D1 |
Departure
| Time | 2026-04-30 18:47 |
|---|---|
| Airport | Billund Airport (EKBI) |
Arrival
| Time | 2026-04-30 19:49 |
|---|---|
| Airport | Luxembourg-Findel International Airport (ELLX) |
| Time | Latitude | Longitude | Altitude | Speed | Heading |
|---|---|---|---|---|---|
| 2026-04-30 18:15 | 55.73779 | 9.14015 | 224 ft | 0 kts | 179° |
| 2026-04-30 18:32 | 55.73791 | 9.14015 | 229 ft | 2 kts | 178° |
| 2026-04-30 18:32 | 55.73821 | 9.14013 | 224 ft | 2 kts | 160° |
| 2026-04-30 18:33 | 55.73835 | 9.14002 | 230 ft | 2 kts | 118° |
| 2026-04-30 18:33 | 55.73838 | 9.13985 | 227 ft | 0 kts | 85° |
| 2026-04-30 18:37 | 55.73838 | 9.13990 | 227 ft | 2 kts | 85° |
| 2026-04-30 18:37 | 55.73839 | 9.14011 | 225 ft | 3 kts | 86° |
| 2026-04-30 18:38 | 55.73841 | 9.14070 | 223 ft | 7 kts | 86° |
| 2026-04-30 18:38 | 55.73849 | 9.14179 | 228 ft | 11 kts | 74° |
| 2026-04-30 18:38 | 55.73894 | 9.14312 | 230 ft | 14 kts | 49° |
| 2026-04-30 18:38 | 55.73955 | 9.14422 | 228 ft | 11 kts | 46° |
| 2026-04-30 18:39 | 55.74009 | 9.14493 | 227 ft | 9 kts | 12° |
| 2026-04-30 18:39 | 55.74083 | 9.14491 | 223 ft | 12 kts | 358° |
| 2026-04-30 18:39 | 55.74158 | 9.14498 | 229 ft | 4 kts | 23° |
| 2026-04-30 18:39 | 55.74177 | 9.14543 | 230 ft | 6 kts | 68° |
| 2026-04-30 18:40 | 55.74184 | 9.14637 | 223 ft | 9 kts | 86° |
| 2026-04-30 18:40 | 55.74188 | 9.14767 | 223 ft | 11 kts | 86° |
| 2026-04-30 18:40 | 55.74194 | 9.14914 | 228 ft | 14 kts | 86° |
| 2026-04-30 18:40 | 55.74201 | 9.15107 | 223 ft | 16 kts | 86° |
| 2026-04-30 18:41 | 55.74207 | 9.15300 | 223 ft | 15 kts | 87° |
| 2026-04-30 18:41 | 55.74212 | 9.15486 | 223 ft | 17 kts | 87° |
| 2026-04-30 18:41 | 55.74219 | 9.15716 | 229 ft | 20 kts | 87° |
| 2026-04-30 18:41 | 55.74226 | 9.15949 | 226 ft | 18 kts | 86° |
| 2026-04-30 18:42 | 55.74233 | 9.16163 | 227 ft | 17 kts | 87° |
| 2026-04-30 18:42 | 55.74247 | 9.16614 | 224 ft | 23 kts | 87° |
| 2026-04-30 18:42 | 55.74256 | 9.16913 | 228 ft | 24 kts | 87° |
| 2026-04-30 18:45 | 55.74252 | 9.18117 | 232 ft | 6 kts | 145° |
| 2026-04-30 18:45 | 55.74198 | 9.18146 | 225 ft | 9 kts | 171° |
| 2026-04-30 18:45 | 55.74144 | 9.18126 | 226 ft | 7 kts | 210° |
| 2026-04-30 18:46 | 55.74124 | 9.18076 | 226 ft | 3 kts | 249° |
| 2026-04-30 18:46 | 55.74123 | 9.18048 | 226 ft | 2 kts | 265° |
| 2026-04-30 18:46 | 55.74117 | 9.17880 | 225 ft | 42 kts | 266° |
| 2026-04-30 18:46 | 55.74086 | 9.16850 | 225 ft | 122 kts | 266° |
| 2026-04-30 18:47 | 55.74027 | 9.14972 | 275 ft | 174 kts | 268° |
| 2026-04-30 18:47 | 55.73966 | 9.12848 | 1053 ft | 171 kts | 272° |
| 2026-04-30 18:47 | 55.74204 | 9.10794 | 1904 ft | 173 kts | 295° |
| 2026-04-30 18:47 | 55.74898 | 9.08992 | 2633 ft | 182 kts | 309° |
| 2026-04-30 18:48 | 55.75720 | 9.07245 | 3310 ft | 192 kts | 309° |
| 2026-04-30 18:48 | 55.76612 | 9.05350 | 3848 ft | 208 kts | 309° |
| 2026-04-30 18:48 | 55.77557 | 9.03275 | 4276 ft | 228 kts | 308° |
| 2026-04-30 18:48 | 55.78568 | 9.00893 | 4570 ft | 253 kts | 301° |
| 2026-04-30 18:49 | 55.79216 | 8.97918 | 4952 ft | 266 kts | 277° |
| 2026-04-30 18:49 | 55.79026 | 8.94632 | 5376 ft | 275 kts | 248° |
| 2026-04-30 18:49 | 55.78033 | 8.91638 | 5654 ft | 288 kts | 231° |
| 2026-04-30 18:49 | 55.76769 | 8.88911 | 6547 ft | 279 kts | 227° |
| 2026-04-30 18:50 | 55.75483 | 8.86305 | 7476 ft | 282 kts | 227° |
| 2026-04-30 18:50 | 55.74171 | 8.83666 | 8361 ft | 286 kts | 227° |
| 2026-04-30 18:50 | 55.72854 | 8.80995 | 9212 ft | 290 kts | 227° |
| 2026-04-30 18:50 | 55.71524 | 8.78271 | 10062 ft | 294 kts | 227° |
| 2026-04-30 18:51 | 55.70152 | 8.75450 | 10321 ft | 320 kts | 228° |
| 2026-04-30 18:51 | 55.68637 | 8.72320 | 10474 ft | 349 kts | 228° |
| 2026-04-30 18:51 | 55.67020 | 8.68970 | 10879 ft | 363 kts | 228° |
| 2026-04-30 18:51 | 55.65377 | 8.65552 | 11697 ft | 367 kts | 228° |
| 2026-04-30 18:52 | 55.63710 | 8.62086 | 12445 ft | 372 kts | 228° |
| 2026-04-30 18:52 | 55.62018 | 8.58571 | 13192 ft | 378 kts | 228° |
| 2026-04-30 18:52 | 55.60299 | 8.55005 | 13903 ft | 383 kts | 228° |
| 2026-04-30 18:52 | 55.58558 | 8.51399 | 14568 ft | 388 kts | 228° |
| 2026-04-30 18:53 | 55.56798 | 8.47759 | 15233 ft | 391 kts | 228° |
| 2026-04-30 18:53 | 55.55626 | 8.45337 | 15674 ft | 393 kts | 229° |
| 2026-04-30 18:53 | 55.53256 | 8.40449 | 16519 ft | 398 kts | 229° |
| 2026-04-30 18:53 | 55.51450 | 8.36730 | 17146 ft | 401 kts | 228° |
| 2026-04-30 18:54 | 55.49636 | 8.33001 | 17816 ft | 402 kts | 229° |
| 2026-04-30 18:54 | 55.47798 | 8.29231 | 18373 ft | 407 kts | 229° |
| 2026-04-30 18:54 | 55.45947 | 8.25439 | 18941 ft | 410 kts | 229° |
| 2026-04-30 18:54 | 55.44706 | 8.22924 | 19260 ft | 412 kts | 227° |
| 2026-04-30 18:55 | 55.41879 | 8.18359 | 19899 ft | 415 kts | 213° |
| 2026-04-30 18:55 | 55.37468 | 8.15144 | 20651 ft | 418 kts | 191° |
| 2026-04-30 18:55 | 55.33656 | 8.14014 | 21242 ft | 422 kts | 187° |
| 2026-04-30 18:56 | 55.27789 | 8.12656 | 22174 ft | 428 kts | 187° |
| 2026-04-30 18:56 | 55.25789 | 8.12158 | 22502 ft | 431 kts | 187° |
| 2026-04-30 18:56 | 55.22857 | 8.11383 | 22984 ft | 434 kts | 188° |
| 2026-04-30 18:57 | 55.16851 | 8.09690 | 23964 ft | 441 kts | 189° |
| 2026-04-30 18:57 | 55.13813 | 8.08811 | 24403 ft | 444 kts | 189° |
| 2026-04-30 18:57 | 55.10749 | 8.07921 | 24846 ft | 447 kts | 189° |
| 2026-04-30 18:58 | 55.04573 | 8.06130 | 25757 ft | 453 kts | 189° |
| 2026-04-30 18:58 | 55.01455 | 8.05230 | 26214 ft | 456 kts | 189° |
| 2026-04-30 18:58 | 54.98321 | 8.04326 | 26664 ft | 459 kts | 189° |
| 2026-04-30 18:59 | 54.91979 | 8.02504 | 27547 ft | 465 kts | 189° |
| 2026-04-30 19:00 | 54.82387 | 7.99761 | 28834 ft | 473 kts | 189° |
| 2026-04-30 19:00 | 54.79128 | 7.98831 | 29239 ft | 477 kts | 190° |
| 2026-04-30 19:00 | 54.72543 | 7.96958 | 30075 ft | 482 kts | 189° |
| 2026-04-30 19:01 | 54.65919 | 7.95081 | 31007 ft | 482 kts | 189° |
| 2026-04-30 19:01 | 54.62652 | 7.94157 | 31378 ft | 481 kts | 189° |
| 2026-04-30 19:02 | 54.56017 | 7.92289 | 32140 ft | 479 kts | 189° |
| 2026-04-30 19:02 | 54.49437 | 7.90455 | 32441 ft | 482 kts | 189° |
| 2026-04-30 19:03 | 54.42789 | 7.88600 | 32453 ft | 492 kts | 189° |
| 2026-04-30 19:04 | 54.29193 | 7.84810 | 32441 ft | 496 kts | 189° |
| 2026-04-30 19:05 | 54.15557 | 7.81033 | 32440 ft | 497 kts | 189° |
| 2026-04-30 19:06 | 54.01954 | 7.77291 | 32440 ft | 497 kts | 189° |
| 2026-04-30 19:06 | 53.91712 | 7.74490 | 32436 ft | 498 kts | 189° |
| 2026-04-30 19:07 | 53.81467 | 7.71701 | 32421 ft | 497 kts | 189° |
| 2026-04-30 19:08 | 53.67837 | 7.68029 | 32404 ft | 496 kts | 189° |
| 2026-04-30 19:09 | 53.57686 | 7.65309 | 32400 ft | 496 kts | 189° |
| 2026-04-30 19:09 | 53.50870 | 7.63483 | 32400 ft | 496 kts | 189° |
| 2026-04-30 19:10 | 53.37314 | 7.59867 | 32414 ft | 495 kts | 188° |
| 2026-04-30 19:11 | 53.27050 | 7.57146 | 32409 ft | 495 kts | 188° |
| 2026-04-30 19:12 | 53.20291 | 7.55361 | 32405 ft | 495 kts | 188° |
| 2026-04-30 19:12 | 53.13476 | 7.53567 | 32403 ft | 495 kts | 188° |
| 2026-04-30 19:13 | 52.99859 | 7.50000 | 32394 ft | 495 kts | 188° |
| 2026-04-30 19:14 | 52.93036 | 7.48222 | 32395 ft | 496 kts | 188° |
| 2026-04-30 19:14 | 52.86215 | 7.46463 | 32390 ft | 496 kts | 188° |
| 2026-04-30 19:15 | 52.79423 | 7.44713 | 32384 ft | 496 kts | 188° |
| 2026-04-30 19:15 | 52.69229 | 7.42084 | 32401 ft | 497 kts | 188° |
| 2026-04-30 19:16 | 52.62404 | 7.40329 | 32399 ft | 496 kts | 188° |
| 2026-04-30 19:17 | 52.52158 | 7.37707 | 32392 ft | 496 kts | 188° |
| 2026-04-30 19:17 | 52.41922 | 7.35098 | 32378 ft | 496 kts | 188° |
| 2026-04-30 19:18 | 52.31691 | 7.32504 | 32368 ft | 496 kts | 188° |
| 2026-04-30 19:19 | 52.24864 | 7.30780 | 32369 ft | 496 kts | 188° |
| 2026-04-30 19:19 | 52.14676 | 7.28216 | 32364 ft | 496 kts | 188° |
| 2026-04-30 19:20 | 52.07849 | 7.26510 | 32365 ft | 496 kts | 188° |
| 2026-04-30 19:21 | 51.97610 | 7.23971 | 32361 ft | 497 kts | 187° |
| 2026-04-30 19:22 | 51.83981 | 7.20501 | 32356 ft | 497 kts | 189° |
| 2026-04-30 19:23 | 51.63735 | 7.14036 | 32349 ft | 495 kts | 189° |
| 2026-04-30 19:24 | 51.53599 | 7.10826 | 32344 ft | 495 kts | 189° |
| 2026-04-30 19:25 | 51.36732 | 7.05524 | 32336 ft | 495 kts | 189° |
| 2026-04-30 19:26 | 51.23233 | 7.01307 | 32324 ft | 494 kts | 189° |
| 2026-04-30 19:27 | 51.13101 | 6.98159 | 32345 ft | 495 kts | 189° |
| 2026-04-30 19:27 | 51.06284 | 6.96049 | 31030 ft | 496 kts | 189° |
| 2026-04-30 19:28 | 51.02894 | 6.95006 | 30340 ft | 497 kts | 189° |
| 2026-04-30 19:28 | 50.96092 | 6.92926 | 28933 ft | 500 kts | 189° |
| 2026-04-30 19:29 | 50.89239 | 6.90828 | 27605 ft | 503 kts | 189° |
| 2026-04-30 19:29 | 50.85797 | 6.89774 | 26892 ft | 504 kts | 189° |
| 2026-04-30 19:30 | 50.75524 | 6.86629 | 24827 ft | 488 kts | 188° |
| 2026-04-30 19:30 | 50.69102 | 6.84648 | 23472 ft | 462 kts | 191° |
| 2026-04-30 19:31 | 50.63419 | 6.80608 | 22031 ft | 445 kts | 211° |
| 2026-04-30 19:31 | 50.60876 | 6.77910 | 21352 ft | 438 kts | 212° |
| 2026-04-30 19:31 | 50.55833 | 6.72753 | 19991 ft | 427 kts | 209° |
| 2026-04-30 19:32 | 50.53292 | 6.70372 | 19336 ft | 423 kts | 208° |
| 2026-04-30 19:32 | 50.50750 | 6.68087 | 18684 ft | 419 kts | 207° |
| 2026-04-30 19:32 | 50.48210 | 6.65860 | 17971 ft | 416 kts | 206° |
| 2026-04-30 19:32 | 50.45706 | 6.63689 | 17465 ft | 408 kts | 206° |
| 2026-04-30 19:33 | 50.43218 | 6.61542 | 17075 ft | 408 kts | 206° |
| 2026-04-30 19:33 | 50.40770 | 6.59434 | 16694 ft | 405 kts | 206° |
| 2026-04-30 19:33 | 50.38305 | 6.57312 | 16392 ft | 402 kts | 206° |
| 2026-04-30 19:33 | 50.35858 | 6.55208 | 16319 ft | 402 kts | 206° |
| 2026-04-30 19:34 | 50.33408 | 6.53102 | 16307 ft | 401 kts | 206° |
| 2026-04-30 19:34 | 50.30960 | 6.51000 | 16297 ft | 401 kts | 206° |
| 2026-04-30 19:34 | 50.26070 | 6.46806 | 16296 ft | 401 kts | 206° |
| 2026-04-30 19:35 | 50.23631 | 6.44718 | 16291 ft | 401 kts | 206° |
| 2026-04-30 19:35 | 50.21201 | 6.42624 | 16301 ft | 401 kts | 207° |
| 2026-04-30 19:35 | 50.18780 | 6.40492 | 16295 ft | 399 kts | 207° |
| 2026-04-30 19:35 | 50.16356 | 6.38343 | 15812 ft | 402 kts | 207° |
| 2026-04-30 19:36 | 50.13949 | 6.36206 | 15164 ft | 394 kts | 207° |
| 2026-04-30 19:36 | 50.11580 | 6.34107 | 14524 ft | 390 kts | 207° |
| 2026-04-30 19:36 | 50.06948 | 6.30022 | 13183 ft | 381 kts | 207° |
| 2026-04-30 19:37 | 50.04651 | 6.28003 | 12513 ft | 376 kts | 207° |
| 2026-04-30 19:37 | 50.02381 | 6.26010 | 11851 ft | 372 kts | 207° |
| 2026-04-30 19:37 | 50.00141 | 6.24047 | 11216 ft | 368 kts | 207° |
| 2026-04-30 19:37 | 49.97932 | 6.22112 | 10619 ft | 362 kts | 207° |
| 2026-04-30 19:38 | 49.95744 | 6.20192 | 10276 ft | 362 kts | 207° |
| 2026-04-30 19:38 | 49.93610 | 6.18305 | 10139 ft | 344 kts | 207° |
| 2026-04-30 19:38 | 49.91575 | 6.16503 | 9999 ft | 329 kts | 207° |
| 2026-04-30 19:38 | 49.89626 | 6.14785 | 9855 ft | 315 kts | 207° |
| 2026-04-30 19:39 | 49.87762 | 6.13148 | 9722 ft | 302 kts | 207° |
| 2026-04-30 19:39 | 49.85971 | 6.11580 | 9561 ft | 290 kts | 206° |
| 2026-04-30 19:39 | 49.84226 | 6.10057 | 9193 ft | 286 kts | 206° |
| 2026-04-30 19:39 | 49.82509 | 6.08563 | 8808 ft | 284 kts | 206° |
| 2026-04-30 19:40 | 49.80815 | 6.07090 | 8417 ft | 283 kts | 206° |
| 2026-04-30 19:40 | 49.79102 | 6.05601 | 8031 ft | 281 kts | 206° |
| 2026-04-30 19:40 | 49.77401 | 6.04125 | 7646 ft | 279 kts | 205° |
| 2026-04-30 19:40 | 49.75713 | 6.02659 | 7263 ft | 278 kts | 205° |
| 2026-04-30 19:41 | 49.74041 | 6.01208 | 6899 ft | 275 kts | 205° |
| 2026-04-30 19:41 | 49.72376 | 5.99765 | 6531 ft | 273 kts | 205° |
| 2026-04-30 19:41 | 49.70717 | 5.98328 | 6148 ft | 272 kts | 205° |
| 2026-04-30 19:41 | 49.69072 | 5.96903 | 5714 ft | 271 kts | 204° |
| 2026-04-30 19:42 | 49.67452 | 5.95499 | 5177 ft | 265 kts | 204° |
| 2026-04-30 19:42 | 49.65847 | 5.94110 | 4391 ft | 264 kts | 203° |
| 2026-04-30 19:42 | 49.64258 | 5.92737 | 3956 ft | 262 kts | 202° |
| 2026-04-30 19:42 | 49.62675 | 5.91447 | 3591 ft | 247 kts | 196° |
| 2026-04-30 19:43 | 49.61126 | 5.90818 | 3160 ft | 224 kts | 175° |
| 2026-04-30 19:43 | 49.59652 | 5.91138 | 2988 ft | 210 kts | 152° |
| 2026-04-30 19:43 | 49.58422 | 5.92111 | 2960 ft | 185 kts | 142° |
| 2026-04-30 19:44 | 49.56384 | 5.94143 | 2968 ft | 170 kts | 135° |
| 2026-04-30 19:44 | 49.55585 | 5.95442 | 2954 ft | 165 kts | 120° |
| 2026-04-30 19:44 | 49.55095 | 5.97020 | 2975 ft | 163 kts | 105° |
| 2026-04-30 19:44 | 49.54954 | 5.98742 | 2958 ft | 164 kts | 89° |
| 2026-04-30 19:45 | 49.55182 | 6.00455 | 2969 ft | 168 kts | 73° |
| 2026-04-30 19:45 | 49.55681 | 6.02085 | 2975 ft | 168 kts | 71° |
| 2026-04-30 19:45 | 49.56171 | 6.03710 | 2973 ft | 168 kts | 71° |
| 2026-04-30 19:45 | 49.56729 | 6.05305 | 2966 ft | 169 kts | 67° |
| 2026-04-30 19:46 | 49.57319 | 6.06852 | 2953 ft | 160 kts | 67° |
| 2026-04-30 19:46 | 49.57850 | 6.08263 | 2814 ft | 153 kts | 68° |
| 2026-04-30 19:46 | 49.58371 | 6.09670 | 2616 ft | 150 kts | 66° |
| 2026-04-30 19:46 | 49.58888 | 6.11059 | 2409 ft | 149 kts | 66° |
| 2026-04-30 19:47 | 49.59408 | 6.12459 | 2193 ft | 148 kts | 66° |
| 2026-04-30 19:47 | 49.59749 | 6.13377 | 2016 ft | 150 kts | 65° |
| 2026-04-30 19:47 | 49.60465 | 6.15314 | 1736 ft | 158 kts | 64° |
| 2026-04-30 19:47 | 49.60999 | 6.16808 | 1513 ft | 160 kts | 60° |
| 2026-04-30 19:48 | 49.61584 | 6.18264 | 1295 ft | 160 kts | 62° |
| 2026-04-30 19:48 | 49.62112 | 6.19731 | 1206 ft | 141 kts | 59° |
| 2026-04-30 19:48 | 49.62508 | 6.20788 | 1254 ft | 85 kts | 60° |
| 2026-04-30 19:48 | 49.62718 | 6.21354 | 1245 ft | 51 kts | 60° |
| 2026-04-30 19:49 | 49.62887 | 6.21806 | 1222 ft | 46 kts | 60° |
| 2026-04-30 19:49 | 49.63017 | 6.22136 | 1221 ft | 1 kts | 28° |
| 2026-04-30 19:49 | 49.63023 | 6.22134 | 1221 ft | 2 kts | 0° |
| 2026-04-30 19:50 | 49.63053 | 6.22125 | 1223 ft | 6 kts | 341° |
| 2026-04-30 19:50 | 49.63094 | 6.22093 | 1226 ft | 6 kts | 332° |
| 2026-04-30 19:50 | 49.63112 | 6.22078 | 1228 ft | 0 kts | 332° |
| 2026-04-30 19:51 | 49.63126 | 6.22067 | 1229 ft | 4 kts | 332° |
| 2026-04-30 19:51 | 49.63137 | 6.22058 | 1231 ft | 1 kts | 332° |
| 2026-04-30 19:51 | 49.63155 | 6.22043 | 1233 ft | 4 kts | 333° |
| 2026-04-30 19:52 | 49.63192 | 6.22053 | 1243 ft | 7 kts | 36° |
| 2026-04-30 19:52 | 49.63212 | 6.22094 | 1252 ft | 6 kts | 51° |
| 2026-04-30 19:52 | 49.63242 | 6.22130 | 1248 ft | 4 kts | 18° |
| 2026-04-30 19:52 | 49.63262 | 6.22122 | 1247 ft | 2 kts | 329° |
| 2026-04-30 19:53 | 49.63290 | 6.22085 | 1243 ft | 8 kts | 317° |
| 2026-04-30 19:53 | 49.63328 | 6.22028 | 1253 ft | 7 kts | 313° |
| 2026-04-30 19:53 | 49.63335 | 6.22005 | 1250 ft | 1 kts | 275° |
| 2026-04-30 19:53 | 49.63330 | 6.21997 | 1253 ft | 1 kts | 240° |
| 2026-04-30 19:54 | 49.63312 | 6.21977 | 1250 ft | 6 kts | 218° |
| 2026-04-30 19:54 | 49.63284 | 6.21953 | 1248 ft | 4 kts | 209° |
| 2026-04-30 19:54 | 49.63283 | 6.21952 | 1248 ft | 0 kts | 209° |